createdAt,value
2019-05-20T00:03:50.299Z,11.7
2019-05-20T00:08:53.749Z,11.7
2019-05-20T00:13:54.817Z,11.7
2019-05-20T00:18:58.270Z,11.6
2019-05-20T00:23:59.389Z,11.7
2019-05-20T00:29:01.735Z,11.6
2019-05-20T00:34:03.935Z,11.6
2019-05-20T00:39:06.245Z,11.6
2019-05-20T00:44:08.576Z,11.6
2019-05-20T00:49:11.024Z,11.6
2019-05-20T00:54:13.225Z,11.6
2019-05-20T00:59:15.526Z,11.5
2019-05-20T01:04:17.837Z,11.5
2019-05-20T01:09:20.098Z,11.5
2019-05-20T01:14:22.957Z,11.5
2019-05-20T01:19:24.735Z,11.5
2019-05-20T01:24:26.906Z,11.5
2019-05-20T01:29:29.212Z,11.4
2019-05-20T01:34:31.516Z,11.4
2019-05-20T01:39:35.649Z,11.4
2019-05-20T01:44:36.058Z,11.4
2019-05-20T01:49:38.522Z,11.4
2019-05-20T01:54:40.749Z,11.4
2019-05-20T01:59:43.088Z,11.4
2019-05-20T02:04:45.569Z,11.4
2019-05-20T02:09:47.573Z,11.4
2019-05-20T02:14:49.869Z,11.4
2019-05-20T02:19:52.117Z,11.4
2019-05-20T02:24:54.534Z,11.4
2019-05-20T02:29:56.744Z,11.4
2019-05-20T02:34:59.068Z,11.4
2019-05-20T02:45:03.749Z,11.3
2019-05-20T02:50:06.082Z,11.3
2019-05-20T02:55:08.364Z,11.3
2019-05-20T03:00:10.772Z,11.3
2019-05-20T03:05:12.794Z,11.2
2019-05-20T03:10:15.137Z,11.2
2019-05-20T03:15:17.427Z,11.2
2019-05-20T03:20:19.690Z,11.2
2019-05-20T03:25:21.941Z,11.2
2019-05-20T03:30:24.313Z,11.2
2019-05-20T03:35:26.869Z,11.2
2019-05-20T03:40:28.848Z,11.2
2019-05-20T03:45:31.180Z,11.2
2019-05-20T03:50:33.510Z,11.2
2019-05-20T03:55:36.171Z,11.2
2019-05-20T04:00:38.622Z,11.2
2019-05-20T04:05:40.322Z,11.2
2019-05-20T04:10:42.689Z,11.2
2019-05-20T04:15:44.995Z,11.2
2019-05-20T04:20:47.252Z,11.2
2019-05-20T04:25:49.673Z,11.2
2019-05-20T04:31:04.916Z,11.2
2019-05-20T04:36:06.096Z,11.2
2019-05-20T04:41:08.463Z,11.2
2019-05-20T04:46:10.723Z,11.2
2019-05-20T04:51:13.010Z,11.2
2019-05-20T04:56:15.369Z,11.2
2019-05-20T05:01:17.509Z,11.2
2019-05-20T05:06:19.851Z,11.2
2019-05-20T05:11:22.057Z,11.2
2019-05-20T05:16:24.382Z,11.3
2019-05-20T05:21:26.597Z,11.2
2019-05-20T05:26:29.004Z,11.3
2019-05-20T05:31:31.324Z,11.3
2019-05-20T05:36:33.542Z,11.3
2019-05-20T05:41:35.917Z,11.3
2019-05-20T05:46:38.098Z,11.3
2019-05-20T05:51:40.370Z,11.3
2019-05-20T05:56:42.756Z,11.4
2019-05-20T06:01:45.021Z,11.4
2019-05-20T06:06:47.274Z,11.4
2019-05-20T06:11:49.559Z,11.4
2019-05-20T06:16:51.857Z,11.5
2019-05-20T06:21:54.203Z,11.6
2019-05-20T06:26:56.545Z,11.6
2019-05-20T06:31:58.800Z,11.6
2019-05-20T06:37:00.994Z,11.6
2019-05-20T06:42:03.381Z,11.6
2019-05-20T06:47:05.612Z,11.7
2019-05-20T06:52:08.101Z,11.8
2019-05-20T06:57:10.356Z,11.8
2019-05-20T07:02:12.710Z,11.9
2019-05-20T07:07:20.786Z,12
2019-05-20T07:12:17.289Z,12.1
2019-05-20T07:17:19.526Z,12.1
2019-05-20T07:22:21.731Z,12.1
2019-05-20T07:27:23.982Z,12.2
2019-05-20T07:32:26.298Z,12.3
2019-05-20T07:37:28.614Z,12.4
2019-05-20T07:42:30.923Z,12.5
2019-05-20T07:47:33.151Z,12.4
2019-05-20T07:52:35.547Z,12.5
2019-05-20T07:57:37.753Z,12.5
2019-05-20T08:02:40.151Z,12.5
2019-05-20T08:07:51.968Z,12.5
2019-05-20T08:12:44.657Z,12.6
2019-05-20T08:17:46.997Z,12.6
2019-05-20T08:22:50.334Z,12.7
2019-05-20T08:27:51.639Z,12.7
2019-05-20T08:32:53.986Z,12.9
2019-05-20T08:37:56.364Z,13
2019-05-20T08:42:58.512Z,13.1
2019-05-20T08:48:00.891Z,13.1
2019-05-20T08:53:03.152Z,13.2
2019-05-20T08:58:05.358Z,13.3
2019-05-20T09:03:07.689Z,13.4
2019-05-20T09:08:09.861Z,13.4
2019-05-20T09:13:12.282Z,13.4
2019-05-20T09:18:14.522Z,13.3
2019-05-20T09:23:16.819Z,13.3
2019-05-20T09:28:19.055Z,13.3
2019-05-20T09:33:21.419Z,13.3
2019-05-20T09:38:23.657Z,13.4
2019-05-20T09:43:26.033Z,13.4
2019-05-20T09:48:28.277Z,13.4
2019-05-20T09:53:30.612Z,13.3
2019-05-20T10:04:17.535Z,13.5
2019-05-20T10:09:19.923Z,13.4
2019-05-20T10:14:22.107Z,13.4
2019-05-20T10:19:24.480Z,13.5
2019-05-20T10:24:26.577Z,13.4
2019-05-20T10:29:28.904Z,13.3
2019-05-20T10:34:31.206Z,13.3
2019-05-20T10:39:33.481Z,13.2
2019-05-20T10:44:35.748Z,13.2
2019-05-20T10:49:38.030Z,13.1
2019-05-20T10:54:40.306Z,13.1
2019-05-20T10:59:42.626Z,13.2
2019-05-20T11:04:45.019Z,13.2
2019-05-20T11:09:47.269Z,13.3
2019-05-20T11:14:49.766Z,13.3
2019-05-20T11:19:52.166Z,13.3
2019-05-20T11:24:54.162Z,13.3
2019-05-20T11:29:56.400Z,13.3
2019-05-20T11:34:58.797Z,13.4
2019-05-20T11:40:01.128Z,13.4
2019-05-20T11:45:03.419Z,13.4
2019-05-20T11:50:05.699Z,13.4
2019-05-20T11:55:07.903Z,13.5
2019-05-20T12:00:10.298Z,13.6
2019-05-20T12:05:12.539Z,13.7
2019-05-20T12:15:17.221Z,13.9
2019-05-20T12:20:19.473Z,13.9
2019-05-20T12:25:21.790Z,14
2019-05-20T12:30:24.080Z,14
2019-05-20T12:35:26.357Z,14
2019-05-20T12:40:28.507Z,13.9
2019-05-20T12:45:30.949Z,14
2019-05-20T12:50:33.258Z,14.2
2019-05-20T12:55:35.526Z,14.2
2019-05-20T13:00:37.773Z,14.1
2019-05-20T13:05:40.373Z,14.1
2019-05-20T13:10:42.407Z,14.1
2019-05-20T13:15:44.642Z,14.2
2019-05-20T13:20:47.067Z,14.2
2019-05-20T13:25:49.241Z,14.1
2019-05-20T13:30:51.780Z,14
2019-05-20T13:35:53.885Z,13.9
2019-05-20T13:40:56.163Z,13.9
2019-05-20T13:45:58.979Z,13.9
2019-05-20T13:51:00.673Z,14
2019-05-20T13:56:03.052Z,14
2019-05-20T14:01:05.305Z,14
2019-05-20T14:06:07.619Z,14
2019-05-20T14:11:09.919Z,14
2019-05-20T14:16:12.295Z,13.9
2019-05-20T14:21:14.651Z,13.9
2019-05-20T14:26:16.761Z,13.8
2019-05-20T14:31:19.067Z,13.7
2019-05-20T14:36:38.831Z,13.8
2019-05-20T14:41:23.755Z,13.8
2019-05-20T14:46:26.011Z,13.8
2019-05-20T14:51:28.840Z,13.8
2019-05-20T14:56:30.591Z,13.7
2019-05-20T15:01:32.850Z,13.6
2019-05-20T15:06:35.112Z,13.7
2019-05-20T15:11:38.738Z,13.6
2019-05-20T15:16:39.733Z,13.6
2019-05-20T15:21:41.963Z,13.5
2019-05-20T15:26:44.338Z,13.5
2019-05-20T15:31:46.792Z,13.4
2019-05-20T15:36:49.147Z,13.3
2019-05-20T15:41:51.276Z,13.2
2019-05-20T15:46:53.632Z,13.1
2019-05-20T15:51:55.922Z,13
2019-05-20T15:56:58.068Z,13
2019-05-20T16:02:00.456Z,12.9
2019-05-20T16:07:02.665Z,12.9
2019-05-20T16:12:05.005Z,13
2019-05-20T16:17:07.290Z,13.1
2019-05-20T16:22:09.501Z,13.1
2019-05-20T16:27:11.884Z,13.1
2019-05-20T16:32:14.173Z,13
2019-05-20T16:37:16.523Z,13
2019-05-20T16:42:18.848Z,13
2019-05-20T16:47:21.075Z,13
2019-05-20T16:52:23.247Z,12.8
2019-05-20T16:57:25.778Z,12.7
2019-05-20T17:02:27.938Z,12.6
2019-05-20T17:07:30.130Z,12.5
2019-05-20T17:12:32.462Z,12.5
2019-05-20T17:17:34.853Z,12.5
2019-05-20T17:22:37.109Z,12.4
2019-05-20T17:27:39.329Z,12.4
2019-05-20T17:32:41.665Z,12.3
2019-05-20T17:37:43.926Z,12.3
2019-05-20T17:42:46.187Z,12.2
2019-05-20T17:47:48.519Z,12.2
2019-05-20T17:52:50.775Z,12.1
2019-05-20T17:57:53.270Z,12.1
2019-05-20T18:02:55.614Z,12.2
2019-05-20T18:07:57.785Z,12.2
2019-05-20T18:13:00.024Z,12.2
2019-05-20T18:18:02.592Z,12.1
2019-05-20T18:23:04.698Z,12.1
2019-05-20T18:28:07.008Z,12.1
2019-05-20T18:33:09.119Z,12
2019-05-20T18:38:11.491Z,12
2019-05-20T18:43:13.756Z,12
2019-05-20T18:48:16.196Z,12
2019-05-20T18:53:18.342Z,11.9
2019-05-20T18:58:20.823Z,11.9
2019-05-20T19:03:23.515Z,11.9
2019-05-20T19:08:25.720Z,11.8
2019-05-20T19:13:27.612Z,11.8
2019-05-20T19:18:29.922Z,11.8
2019-05-20T19:23:32.066Z,11.7
2019-05-20T19:28:34.335Z,11.7
2019-05-20T19:33:36.804Z,11.7
2019-05-20T19:38:38.968Z,11.6
2019-05-20T19:43:41.297Z,11.6
2019-05-20T19:48:43.666Z,11.5
2019-05-20T19:53:45.917Z,11.6
2019-05-20T19:58:48.181Z,11.5
2019-05-20T20:03:50.470Z,11.5
2019-05-20T20:08:52.780Z,11.5
2019-05-20T20:13:55.011Z,11.4
2019-05-20T20:18:57.400Z,11.4
2019-05-20T20:23:59.673Z,11.4
2019-05-20T20:29:01.925Z,11.4
2019-05-20T20:34:04.250Z,11.3
2019-05-20T20:39:06.503Z,11.3
2019-05-20T20:44:08.798Z,11.2
2019-05-20T20:49:14.284Z,11.2
2019-05-20T20:54:13.511Z,11.1
2019-05-20T20:59:15.783Z,11.1
2019-05-20T21:04:17.967Z,11
2019-05-20T21:09:20.331Z,11.1
2019-05-20T21:14:22.654Z,11
2019-05-20T21:19:24.956Z,11
2019-05-20T21:24:27.115Z,11
2019-05-20T21:29:32.469Z,10.9
2019-05-20T21:34:31.766Z,10.9
2019-05-20T21:39:34.175Z,10.9
2019-05-20T21:44:36.376Z,10.9
2019-05-20T21:49:38.661Z,10.9
2019-05-20T21:54:40.989Z,10.9
2019-05-20T21:59:43.208Z,10.9
2019-05-20T22:04:45.697Z,10.9
2019-05-20T22:09:47.956Z,10.9
2019-05-20T22:14:50.366Z,10.9
2019-05-20T22:19:52.554Z,10.8
2019-05-20T22:24:54.894Z,10.8
2019-05-20T22:29:57.224Z,10.8
2019-05-20T22:34:59.425Z,10.8
2019-05-20T22:40:01.742Z,10.7
2019-05-20T22:45:03.952Z,10.7
2019-05-20T22:50:06.410Z,10.7
2019-05-20T22:55:08.689Z,10.7
2019-05-20T23:00:10.847Z,10.6
2019-05-20T23:05:13.127Z,10.6
2019-05-20T23:10:15.427Z,10.6
2019-05-20T23:15:17.650Z,10.6
2019-05-20T23:20:20.047Z,10.6
2019-05-20T23:25:22.253Z,10.6
2019-05-20T23:30:24.543Z,10.6
2019-05-20T23:35:27.011Z,10.5
2019-05-20T23:40:29.074Z,10.5
2019-05-20T23:45:31.427Z,10.5
2019-05-20T23:50:33.725Z,10.6
2019-05-20T23:55:35.966Z,10.6
